Mahon, Indiana
Current Conditions -  °F | °C
As of 4:15 AM on Monday 24 Nov 2014 (Local Time) from KHHG Reporting Station
Overcast Overcast  
Wind Chill: 53°   Ceiling: 700
Heat Index: 53°   Visibility: 10mi
Dew Point: 53°   Wind: 13mph
Humidity: 98%   Direction: 220°SW
Pressure: 29.18"   Gusts: 17mph
Location:  40.9238°N, 85.5001°W
Report Text: KHHG 240915Z AUTO 22011G15KT 10SM OVC007 12/11 A2918 RMK AO2 T01170114
Loading
Personal Weather Stations






























Interactive Weather Map New forecast layout! Learn more

10-Day Weather Forecast

Advertisements
Track Severe Weather on mobile